Terminal Aerodrome Forecast
Issued by NWS

Home | Current Version | Previous Version | Text Only | Print | Product List | Glossary Off
Versions: 1 2 3 4 5 6 7 8 9 10 11 12 13 14

000
FTUS42 KMHX 162348
TAFPGV
TAF
KPGV 162348Z 1700/1724 00000KT P6SM BKN250
     FM171200 00000KT P6SM BKN100
     FM171600 36007KT P6SM -SN SCT025 OVC080
     FM171900 36008KT P6SM -SN SCT007 OVC015
     FM172100 36009KT P6SM OVC007
     FM172300 35010KT P6SM OVC015
      AMD LTD TO CLD VIS AND WIND=

USA.gov is the U.S. government's official web portal to all federal, state and local government web resources and services.